createdAt,value
2022-09-14T00:00:40.007Z,23.30
2022-09-14T00:03:07.761Z,23.40
2022-09-14T00:05:41.674Z,23.50
2022-09-14T00:08:08.757Z,23.60
2022-09-14T00:10:42.855Z,23.50
2022-09-14T00:13:10.492Z,23.30
2022-09-14T00:15:39.301Z,23.40
2022-09-14T00:18:09.998Z,23.30
2022-09-14T00:20:37.386Z,23.20
2022-09-14T00:23:04.921Z,23.20
2022-09-14T00:25:32.591Z,23.20
2022-09-14T00:27:59.663Z,23.20
2022-09-14T00:30:27.729Z,23.20
2022-09-14T00:32:54.744Z,23.20
2022-09-14T00:35:21.796Z,23.10
2022-09-14T00:37:49.129Z,23.30
2022-09-14T00:40:16.389Z,23.40
2022-09-14T00:42:43.516Z,23.40
2022-09-14T00:45:15.704Z,23.40
2022-09-14T00:47:43.257Z,23.40
2022-09-14T00:50:11.287Z,23.30
2022-09-14T00:52:40.889Z,23.30
2022-09-14T00:55:10.111Z,23.30
2022-09-14T00:57:39.064Z,23.30
2022-09-14T01:00:07.962Z,23.20
2022-09-14T01:02:35.348Z,23.00
2022-09-14T01:05:02.673Z,22.90
2022-09-14T01:07:42.712Z,22.70
2022-09-14T01:10:19.235Z,22.70
2022-09-14T01:12:55.898Z,22.60
2022-09-14T01:15:43.717Z,22.60
2022-09-14T01:18:14.268Z,22.50
2022-09-14T01:20:47.469Z,22.40
2022-09-14T01:23:19.853Z,22.40
2022-09-14T01:25:53.097Z,22.40
2022-09-14T01:28:23.907Z,22.40
2022-09-14T01:30:52.773Z,22.40
2022-09-14T01:33:24.831Z,22.40
2022-09-14T01:35:58.899Z,22.40
2022-09-14T01:38:34.951Z,22.30
2022-09-14T01:41:04.063Z,22.40
2022-09-14T01:43:36.642Z,22.40
2022-09-14T01:46:10.650Z,22.40
2022-09-14T01:52:31.687Z,22.40
2022-09-14T01:55:05.815Z,22.40
2022-09-14T01:57:39.094Z,22.30
2022-09-14T02:00:09.294Z,22.30
2022-09-14T02:02:41.614Z,22.30
2022-09-14T02:05:20.891Z,22.10
2022-09-14T02:07:48.016Z,22.00
2022-09-14T02:10:15.663Z,22.10
2022-09-14T02:12:43.925Z,22.10
2022-09-14T02:15:12.137Z,22.00
2022-09-14T02:17:39.822Z,22.00
2022-09-14T02:20:09.164Z,21.90
2022-09-14T02:22:36.533Z,21.80
2022-09-14T02:25:03.677Z,21.80
2022-09-14T02:27:30.875Z,21.90
2022-09-14T02:29:58.432Z,21.90
2022-09-14T02:32:25.741Z,21.90
2022-09-14T02:35:11.267Z,21.90
2022-09-14T02:37:38.256Z,21.90
2022-09-14T02:40:10.737Z,21.90
2022-09-14T02:42:56.984Z,21.90
2022-09-14T02:45:48.397Z,21.90
2022-09-14T02:48:34.286Z,22.00
2022-09-14T02:51:14.477Z,22.10
2022-09-14T02:54:00.532Z,22.10
2022-09-14T02:56:28.663Z,22.10
2022-09-14T02:58:55.909Z,22.20
2022-09-14T03:01:23.560Z,22.20
2022-09-14T03:03:50.956Z,22.20
2022-09-14T03:06:18.076Z,22.20
2022-09-14T03:08:45.114Z,22.20
2022-09-14T03:11:12.210Z,22.20
2022-09-14T03:13:39.483Z,22.20
2022-09-14T03:16:10.463Z,22.20
2022-09-14T03:18:37.832Z,22.20
2022-09-14T03:21:04.879Z,22.10
2022-09-14T03:23:35.507Z,22.10
2022-09-14T03:26:06.459Z,22.10
2022-09-14T03:28:33.493Z,22.10
2022-09-14T03:31:01.612Z,22.00
2022-09-14T03:33:28.747Z,22.10
2022-09-14T03:35:55.774Z,22.00
2022-09-14T03:38:23.011Z,21.90
2022-09-14T03:40:50.545Z,21.90
2022-09-14T03:43:17.582Z,21.90
2022-09-14T03:45:44.999Z,21.90
2022-09-14T03:48:15.334Z,21.80
2022-09-14T03:50:42.341Z,21.70
2022-09-14T03:53:09.464Z,21.70
2022-09-14T03:55:36.681Z,21.70
2022-09-14T03:58:03.712Z,21.60
2022-09-14T04:00:32.363Z,21.60
2022-09-14T04:03:00.385Z,21.60
2022-09-14T04:05:27.504Z,21.50
2022-09-14T04:07:54.568Z,21.50
2022-09-14T04:10:21.621Z,21.50
2022-09-14T04:12:48.672Z,21.50
2022-09-14T04:15:15.770Z,21.50
2022-09-14T04:17:42.846Z,21.50
2022-09-14T04:20:10.135Z,21.40
2022-09-14T04:22:37.203Z,21.40
2022-09-14T04:25:04.410Z,21.30
2022-09-14T04:27:31.751Z,21.20
2022-09-14T04:29:58.799Z,21.30
2022-09-14T04:32:25.823Z,21.20
2022-09-14T04:34:53.157Z,21.20
2022-09-14T04:37:20.214Z,21.20
2022-09-14T04:39:47.297Z,21.20
2022-09-14T04:42:14.484Z,21.30
2022-09-14T04:44:41.547Z,21.20
2022-09-14T04:47:08.546Z,21.20
2022-09-14T04:49:35.804Z,21.20
2022-09-14T04:52:03.023Z,21.20
2022-09-14T04:54:30.034Z,21.10
2022-09-14T04:56:57.569Z,21.10
2022-09-14T04:59:24.615Z,21.10
2022-09-14T05:01:51.681Z,21.00
2022-09-14T05:04:18.778Z,21.00
2022-09-14T05:06:47.874Z,21.00
2022-09-14T05:09:16.141Z,20.90
2022-09-14T05:11:43.381Z,20.90
2022-09-14T05:14:14.251Z,20.90
2022-09-14T05:16:42.108Z,20.90
2022-09-14T05:19:11.724Z,20.90
2022-09-14T05:21:38.778Z,20.80
2022-09-14T05:24:15.611Z,20.80
2022-09-14T05:26:43.900Z,20.90
2022-09-14T05:29:14.708Z,21.00
2022-09-14T05:31:45.217Z,21.00
2022-09-14T05:34:12.681Z,21.10
2022-09-14T05:36:47.844Z,21.20
2022-09-14T05:39:16.192Z,21.20
2022-09-14T05:41:44.748Z,21.40
2022-09-14T05:44:11.741Z,21.60
2022-09-14T05:46:38.956Z,21.70
2022-09-14T05:49:06.153Z,21.80
2022-09-14T05:51:33.270Z,21.80
2022-09-14T05:54:00.934Z,21.90
2022-09-14T05:56:28.920Z,22.00
2022-09-14T05:58:56.093Z,22.20
2022-09-14T06:01:25.669Z,22.40
2022-09-14T06:03:53.945Z,22.60
2022-09-14T06:06:21.505Z,22.80
2022-09-14T06:08:52.447Z,22.90
2022-09-14T06:11:21.502Z,23.00
2022-09-14T06:13:51.316Z,23.20
2022-09-14T06:16:19.510Z,23.20
2022-09-14T06:18:47.354Z,23.20
2022-09-14T06:21:16.615Z,23.20
2022-09-14T06:23:44.047Z,23.30
2022-09-14T06:26:23.607Z,23.40
2022-09-14T06:28:50.773Z,23.50
2022-09-14T06:31:28.720Z,23.20
2022-09-14T06:33:58.166Z,23.30
2022-09-14T06:36:26.392Z,23.50
2022-09-14T06:38:53.498Z,23.60
2022-09-14T06:41:22.206Z,23.80
2022-09-14T06:43:49.699Z,24.20
2022-09-14T06:46:21.568Z,24.70
2022-09-14T06:49:08.519Z,25.20
2022-09-14T06:51:43.025Z,25.80
2022-09-14T06:54:11.675Z,26.10
2022-09-14T06:56:39.893Z,26.30
2022-09-14T06:59:08.009Z,26.40
2022-09-14T07:01:37.548Z,26.50
2022-09-14T07:04:05.799Z,26.60
2022-09-14T07:06:38.331Z,26.60
2022-09-14T07:09:11.543Z,26.70
2022-09-14T07:11:38.608Z,27.00
2022-09-14T07:14:06.119Z,27.20
2022-09-14T07:16:34.470Z,27.50
2022-09-14T07:19:04.023Z,27.80
2022-09-14T07:21:31.833Z,28.10
2022-09-14T07:23:59.386Z,28.30
2022-09-14T07:26:31.285Z,28.20
2022-09-14T07:28:59.822Z,28.00
2022-09-14T07:31:31.448Z,27.70
2022-09-14T07:34:00.034Z,27.30
2022-09-14T07:36:29.496Z,26.90
2022-09-14T07:38:59.810Z,26.60
2022-09-14T07:41:27.849Z,26.60
2022-09-14T07:43:56.762Z,26.80
2022-09-14T07:47:13.982Z,26.90
2022-09-14T07:49:41.041Z,26.80
2022-09-14T07:52:08.773Z,26.80
2022-09-14T07:54:45.266Z,26.90
2022-09-14T07:57:12.460Z,26.90
2022-09-14T07:59:54.681Z,27.00
2022-09-14T08:02:23.379Z,27.00
2022-09-14T08:04:53.795Z,27.10
2022-09-14T08:07:20.770Z,27.00
2022-09-14T08:09:48.061Z,27.10
2022-09-14T08:12:16.377Z,27.30
2022-09-14T08:14:43.338Z,27.40
2022-09-14T08:17:11.036Z,27.80
2022-09-14T08:19:38.417Z,28.10
2022-09-14T08:22:05.547Z,28.10
2022-09-14T08:24:33.484Z,27.70
2022-09-14T08:27:00.539Z,27.70
2022-09-14T08:29:27.879Z,27.60
2022-09-14T08:31:54.993Z,27.50
2022-09-14T08:34:31.182Z,27.10
2022-09-14T08:36:58.155Z,27.10
2022-09-14T08:39:25.124Z,27.30
2022-09-14T08:41:56.407Z,27.40
2022-09-14T08:44:25.745Z,27.50
2022-09-14T08:47:02.326Z,27.40
2022-09-14T08:49:48.046Z,27.30
2022-09-14T08:52:22.682Z,27.20
2022-09-14T08:54:52.760Z,27.30
2022-09-14T08:57:23.428Z,27.30
2022-09-14T08:59:50.439Z,27.30
2022-09-14T09:02:25.869Z,27.10
2022-09-14T09:04:52.884Z,27.20
2022-09-14T09:07:27.019Z,27.10
2022-09-14T09:09:58.224Z,27.20
2022-09-14T09:12:37.056Z,27.30
2022-09-14T09:15:06.815Z,27.20
2022-09-14T09:17:41.819Z,27.10
2022-09-14T09:20:11.879Z,26.90
2022-09-14T09:22:43.384Z,26.80
2022-09-14T09:25:15.483Z,26.60
2022-09-14T09:27:42.511Z,26.70
2022-09-14T09:30:12.609Z,26.60
2022-09-14T09:32:39.820Z,26.60
2022-09-14T09:35:33.438Z,26.70
2022-09-14T09:38:09.185Z,26.60
2022-09-14T09:40:37.897Z,26.50
2022-09-14T09:43:12.223Z,26.50
2022-09-14T09:45:48.668Z,26.30
2022-09-14T09:48:17.506Z,26.30
2022-09-14T09:50:52.094Z,26.30
2022-09-14T09:53:21.719Z,26.40
2022-09-14T09:55:49.390Z,26.70
2022-09-14T09:58:25.411Z,27.00
2022-09-14T10:00:57.336Z,27.10
2022-09-14T10:03:29.633Z,27.50
2022-09-14T10:06:01.989Z,27.90
2022-09-14T10:08:34.689Z,28.10
2022-09-14T10:11:03.082Z,28.30
2022-09-14T10:13:38.423Z,28.00
2022-09-14T10:16:07.166Z,28.10
2022-09-14T10:18:35.522Z,28.40
2022-09-14T10:21:02.656Z,28.60
2022-09-14T10:23:30.814Z,28.60
2022-09-14T10:26:16.223Z,29.00
2022-09-14T10:28:44.395Z,29.20
2022-09-14T10:31:12.093Z,29.50
2022-09-14T10:33:40.079Z,29.60
2022-09-14T10:36:07.106Z,29.60
2022-09-14T10:38:45.978Z,29.50
2022-09-14T10:41:13.311Z,29.40
2022-09-14T10:43:48.090Z,29.70
2022-09-14T10:46:20.120Z,29.20
2022-09-14T10:48:55.703Z,29.00
2022-09-14T10:51:26.079Z,28.80
2022-09-14T10:53:53.126Z,28.60
2022-09-14T10:56:29.085Z,28.50
2022-09-14T10:58:59.606Z,28.60
2022-09-14T11:01:40.262Z,28.70
2022-09-14T11:04:22.375Z,28.90
2022-09-14T11:06:52.458Z,29.10
2022-09-14T11:09:25.209Z,29.40
2022-09-14T11:12:15.654Z,29.30
2022-09-14T11:14:55.423Z,29.10
2022-09-14T11:17:42.738Z,28.90
2022-09-14T11:20:19.276Z,29.00
2022-09-14T11:22:55.439Z,28.90
2022-09-14T11:25:26.528Z,29.00
2022-09-14T11:27:56.828Z,29.20
2022-09-14T11:30:26.564Z,29.20
2022-09-14T11:33:03.097Z,29.40
2022-09-14T11:35:43.400Z,29.60
2022-09-14T11:38:13.280Z,29.40
2022-09-14T11:40:43.318Z,29.50
2022-09-14T11:43:13.186Z,29.70
2022-09-14T11:45:43.667Z,29.60
2022-09-14T11:51:13.245Z,29.60
2022-09-14T11:53:41.802Z,29.50
2022-09-14T11:56:26.273Z,29.40
2022-09-14T11:58:54.616Z,29.60
2022-09-14T12:01:25.880Z,29.60
2022-09-14T12:04:02.052Z,29.40
2022-09-14T12:06:31.865Z,29.40
2022-09-14T12:09:17.327Z,29.30
2022-09-14T12:11:45.480Z,29.20
2022-09-14T12:14:26.854Z,29.30
2022-09-14T12:17:17.680Z,29.40
2022-09-14T12:19:58.179Z,29.50
2022-09-14T12:22:36.133Z,29.70
2022-09-14T12:25:09.533Z,29.70
2022-09-14T12:27:38.543Z,29.70
2022-09-14T12:30:41.339Z,29.80
2022-09-14T12:33:26.864Z,29.80
2022-09-14T12:35:53.990Z,29.60
2022-09-14T12:38:33.053Z,29.60
2022-09-14T12:41:00.072Z,29.60
2022-09-14T12:43:33.201Z,29.60
2022-09-14T12:46:19.084Z,29.60
2022-09-14T12:48:49.015Z,29.50
2022-09-14T12:51:31.350Z,29.50
2022-09-14T12:54:01.015Z,29.50
2022-09-14T12:56:28.045Z,29.50
2022-09-14T12:58:59.982Z,29.50
2022-09-14T13:01:56.769Z,29.50
2022-09-14T13:04:33.518Z,29.60
2022-09-14T13:07:04.372Z,29.80
2022-09-14T13:09:32.168Z,29.90
2022-09-14T13:12:03.874Z,30.10
2022-09-14T13:14:32.723Z,30.00
2022-09-14T13:20:18.284Z,29.70
2022-09-14T13:22:45.453Z,29.60
2022-09-14T13:25:26.733Z,29.40
2022-09-14T13:27:55.063Z,29.40
2022-09-14T13:30:24.171Z,29.50
2022-09-14T13:32:53.160Z,29.40
2022-09-14T13:35:24.910Z,29.50
2022-09-14T13:37:52.368Z,29.50
2022-09-14T13:40:23.266Z,29.60
2022-09-14T13:42:50.624Z,29.50
2022-09-14T13:45:17.666Z,29.50
2022-09-14T13:47:44.829Z,29.40
2022-09-14T13:50:12.836Z,29.50
2022-09-14T13:53:01.298Z,29.50
2022-09-14T13:55:29.599Z,29.50
2022-09-14T13:58:12.049Z,29.40
2022-09-14T14:00:50.138Z,29.30
2022-09-14T14:03:40.426Z,29.30
2022-09-14T14:06:29.399Z,29.30
2022-09-14T14:09:01.332Z,29.20
2022-09-14T14:11:29.872Z,29.20
2022-09-14T14:13:57.737Z,29.10
2022-09-14T14:16:26.582Z,29.10
2022-09-14T14:18:53.640Z,29.10
2022-09-14T14:21:46.008Z,29.10
2022-09-14T14:24:17.224Z,29.00
2022-09-14T14:26:48.327Z,29.00
2022-09-14T14:29:16.392Z,29.00
2022-09-14T14:31:44.005Z,28.90
2022-09-14T14:34:18.681Z,28.90
2022-09-14T14:36:47.909Z,28.80
2022-09-14T14:39:15.025Z,28.80
2022-09-14T14:41:42.190Z,28.70
2022-09-14T14:44:12.217Z,28.70
2022-09-14T14:46:40.679Z,28.60
2022-09-14T14:49:10.642Z,28.50
2022-09-14T14:51:37.905Z,28.40
2022-09-14T14:54:05.972Z,28.30
2022-09-14T14:56:32.990Z,28.30
2022-09-14T14:59:02.222Z,28.20
2022-09-14T15:01:29.687Z,28.20
2022-09-14T15:03:56.809Z,28.20
2022-09-14T15:06:26.724Z,28.10
2022-09-14T15:08:54.921Z,28.10
2022-09-14T15:11:22.773Z,28.10
2022-09-14T15:13:49.951Z,28.00
2022-09-14T15:16:17.408Z,28.00
2022-09-14T15:18:44.473Z,27.90
2022-09-14T15:21:11.700Z,27.80
2022-09-14T15:23:38.938Z,27.80
2022-09-14T15:26:06.138Z,27.80
2022-09-14T15:28:38.075Z,27.70
2022-09-14T15:31:07.826Z,27.80
2022-09-14T15:33:35.146Z,27.80
2022-09-14T15:36:03.265Z,27.80
2022-09-14T15:38:30.497Z,27.80
2022-09-14T15:40:57.841Z,27.80
2022-09-14T15:43:27.843Z,27.70
2022-09-14T15:46:26.446Z,27.70
2022-09-14T15:49:03.770Z,27.70
2022-09-14T15:51:33.040Z,27.60
2022-09-14T15:54:00.756Z,27.50
2022-09-14T15:56:28.071Z,27.40
2022-09-14T15:58:57.688Z,27.30
2022-09-14T16:01:24.868Z,27.20
2022-09-14T16:03:58.700Z,27.10
2022-09-14T16:06:26.061Z,27.00
2022-09-14T16:08:53.149Z,26.90
2022-09-14T16:11:20.663Z,26.80
2022-09-14T16:13:58.264Z,26.70
2022-09-14T16:16:25.397Z,26.70
2022-09-14T16:18:52.850Z,26.70
2022-09-14T16:21:22.207Z,26.80
2022-09-14T16:23:53.661Z,26.70
2022-09-14T16:26:22.781Z,26.70
2022-09-14T16:28:50.648Z,26.60
2022-09-14T16:31:18.927Z,26.60
2022-09-14T16:33:48.328Z,26.60
2022-09-14T16:36:16.891Z,26.60
2022-09-14T16:38:44.309Z,26.50
2022-09-14T16:41:12.239Z,26.50
2022-09-14T16:43:39.301Z,26.40
2022-09-14T16:46:08.187Z,26.20
2022-09-14T16:48:36.219Z,25.70
2022-09-14T16:51:03.919Z,25.50
2022-09-14T16:53:32.365Z,25.50
2022-09-14T16:56:00.568Z,25.50
2022-09-14T16:58:27.699Z,25.40
2022-09-14T17:00:54.895Z,25.40
2022-09-14T17:03:22.143Z,25.40
2022-09-14T17:05:49.528Z,25.30
2022-09-14T17:08:16.556Z,25.20
2022-09-14T17:10:45.737Z,25.20
2022-09-14T17:13:12.775Z,25.30
2022-09-14T17:15:39.953Z,25.20
2022-09-14T17:18:06.987Z,25.20
2022-09-14T17:20:37.486Z,25.30
2022-09-14T17:23:04.516Z,25.30
2022-09-14T17:25:33.218Z,25.30
2022-09-14T17:28:00.420Z,25.30
2022-09-14T17:30:27.770Z,25.10
2022-09-14T17:32:55.071Z,25.00
2022-09-14T17:35:22.142Z,24.70
2022-09-14T17:37:49.162Z,24.70
2022-09-14T17:40:16.290Z,24.70
2022-09-14T17:42:46.433Z,24.60
2022-09-14T17:45:13.468Z,24.60
2022-09-14T17:47:44.105Z,24.70
2022-09-14T17:50:11.853Z,24.80
2022-09-14T17:52:38.883Z,24.80
2022-09-14T17:55:06.097Z,24.70
2022-09-14T17:57:33.115Z,24.70
2022-09-14T18:00:00.126Z,24.70
2022-09-14T18:02:28.782Z,24.70
2022-09-14T18:04:55.776Z,24.70
2022-09-14T18:07:23.489Z,24.50
2022-09-14T18:09:50.663Z,24.50
2022-09-14T18:12:18.530Z,24.30
2022-09-14T18:14:45.987Z,24.20
2022-09-14T18:17:12.998Z,24.20
2022-09-14T18:19:40.286Z,24.10
2022-09-14T18:22:07.969Z,24.10
2022-09-14T18:24:35.304Z,24.10
2022-09-14T18:27:02.371Z,24.00
2022-09-14T18:29:31.466Z,24.10
2022-09-14T18:31:58.636Z,24.00
2022-09-14T18:34:25.864Z,24.00
2022-09-14T18:36:53.158Z,24.10
2022-09-14T18:39:20.299Z,24.10
2022-09-14T18:41:49.641Z,24.20
2022-09-14T18:44:16.792Z,24.30
2022-09-14T18:46:45.255Z,24.30
2022-09-14T18:49:12.520Z,24.40
2022-09-14T18:51:39.604Z,24.40
2022-09-14T18:54:07.230Z,24.50
2022-09-14T18:56:35.082Z,24.50
2022-09-14T18:59:03.369Z,24.50
2022-09-14T19:01:36.698Z,24.50
2022-09-14T19:04:04.749Z,24.50
2022-09-14T19:06:35.517Z,24.50
2022-09-14T19:09:03.456Z,24.40
2022-09-14T19:11:40.801Z,24.50
2022-09-14T19:14:15.267Z,24.40
2022-09-14T19:16:42.459Z,24.50
2022-09-14T19:19:11.522Z,24.50
2022-09-14T19:21:38.612Z,24.40
2022-09-14T19:24:07.208Z,24.40
2022-09-14T19:26:45.328Z,24.40
2022-09-14T19:29:15.696Z,24.40
2022-09-14T19:31:42.980Z,24.30
2022-09-14T19:34:11.489Z,24.30
2022-09-14T19:36:38.610Z,24.20
2022-09-14T19:39:05.843Z,24.20
2022-09-14T19:41:33.544Z,24.20
2022-09-14T19:44:01.285Z,24.10
2022-09-14T19:46:36.283Z,24.10
2022-09-14T19:49:03.514Z,24.10
2022-09-14T19:51:30.961Z,24.00
2022-09-14T19:53:59.391Z,24.10
2022-09-14T19:56:27.680Z,24.10
2022-09-14T19:59:11.935Z,24.10
2022-09-14T20:01:40.013Z,24.00
2022-09-14T20:04:10.176Z,24.10
2022-09-14T20:06:40.670Z,24.00
2022-09-14T20:09:18.667Z,24.00
2022-09-14T20:11:47.950Z,23.90
2022-09-14T20:14:17.066Z,23.90
2022-09-14T20:16:48.659Z,23.90
2022-09-14T20:19:53.171Z,23.90
2022-09-14T20:22:20.296Z,23.80
2022-09-14T20:24:59.484Z,23.80
2022-09-14T20:27:26.595Z,23.70
2022-09-14T20:29:56.766Z,23.70
2022-09-14T20:32:27.777Z,23.60
2022-09-14T20:34:54.931Z,23.70
2022-09-14T20:37:24.148Z,23.60
2022-09-14T20:40:29.457Z,23.60
2022-09-14T20:42:56.515Z,23.70
2022-09-14T20:45:24.755Z,23.50
2022-09-14T20:47:56.667Z,23.50
2022-09-14T20:50:23.747Z,23.50
2022-09-14T20:52:53.029Z,23.50
2022-09-14T20:55:20.093Z,23.50
2022-09-14T20:57:50.493Z,23.50
2022-09-14T21:00:17.593Z,23.30
2022-09-14T21:02:52.347Z,23.30
2022-09-14T21:05:19.611Z,23.30
2022-09-14T21:07:55.554Z,23.30
2022-09-14T21:10:29.193Z,23.20
2022-09-14T21:13:17.201Z,23.20
2022-09-14T21:15:44.285Z,23.30
2022-09-14T21:18:11.401Z,23.30
2022-09-14T21:20:41.966Z,23.30
2022-09-14T21:23:09.063Z,23.30
2022-09-14T21:25:36.185Z,23.30
2022-09-14T21:28:04.100Z,23.30
2022-09-14T21:30:31.291Z,23.20
2022-09-14T21:32:58.381Z,23.10
2022-09-14T21:35:27.413Z,23.10
2022-09-14T21:37:56.315Z,23.20
2022-09-14T21:40:25.118Z,23.20
2022-09-14T21:42:53.922Z,23.20
2022-09-14T21:45:21.139Z,23.20
2022-09-14T21:47:49.742Z,23.20
2022-09-14T21:50:17.072Z,23.20
2022-09-14T21:52:45.750Z,23.20
2022-09-14T21:55:13.083Z,23.20
2022-09-14T21:57:40.152Z,23.20
2022-09-14T22:00:09.144Z,23.20
2022-09-14T22:02:36.287Z,23.10
2022-09-14T22:05:03.872Z,23.10
2022-09-14T22:07:31.845Z,23.00
2022-09-14T22:09:59.021Z,23.00
2022-09-14T22:12:26.334Z,23.00
2022-09-14T22:14:53.460Z,22.90
2022-09-14T22:17:20.627Z,22.80
2022-09-14T22:19:49.314Z,22.70
2022-09-14T22:22:17.562Z,22.70
2022-09-14T22:24:44.605Z,22.60
2022-09-14T22:27:11.903Z,22.60
2022-09-14T22:29:40.578Z,22.60
2022-09-14T22:32:10.194Z,22.50
2022-09-14T22:34:38.778Z,22.60
2022-09-14T22:37:05.924Z,22.50
2022-09-14T22:39:33.375Z,22.40
2022-09-14T22:42:00.422Z,22.40
2022-09-14T22:44:27.467Z,22.40
2022-09-14T22:46:54.539Z,22.40
2022-09-14T22:49:21.568Z,22.40
2022-09-14T22:51:48.656Z,22.50
2022-09-14T22:54:15.728Z,22.50
2022-09-14T22:56:42.728Z,22.50
2022-09-14T22:59:10.324Z,22.40
2022-09-14T23:01:39.160Z,22.50
2022-09-14T23:04:08.028Z,22.40
2022-09-14T23:06:39.744Z,22.40
2022-09-14T23:09:07.801Z,22.50
2022-09-14T23:11:35.041Z,22.50
2022-09-14T23:14:02.123Z,22.50
2022-09-14T23:16:30.185Z,22.50
2022-09-14T23:19:01.699Z,22.60
2022-09-14T23:21:29.479Z,22.60
2022-09-14T23:23:57.736Z,22.50
2022-09-14T23:26:25.228Z,22.50
2022-09-14T23:28:55.409Z,22.40
2022-09-14T23:31:26.072Z,22.50
2022-09-14T23:33:53.985Z,22.50
2022-09-14T23:36:22.499Z,22.40
2022-09-14T23:38:50.074Z,22.40
2022-09-14T23:41:17.831Z,22.40
2022-09-14T23:43:45.007Z,22.30
2022-09-14T23:46:12.735Z,22.30
2022-09-14T23:48:39.965Z,22.30
2022-09-14T23:51:07.966Z,22.30
2022-09-14T23:53:39.222Z,22.30
2022-09-14T23:56:09.637Z,22.30
2022-09-14T23:58:59.318Z,22.30
